createdAt,value
2022-11-25T00:01:41.734Z,2.78
2022-11-25T00:04:09.220Z,2.75
2022-11-25T00:06:36.760Z,2.82
2022-11-25T00:09:08.373Z,2.83
2022-11-25T00:11:39.925Z,2.84
2022-11-25T00:14:08.801Z,2.83
2022-11-25T00:16:36.283Z,2.85
2022-11-25T00:19:03.932Z,2.93
2022-11-25T00:21:33.779Z,2.94
2022-11-25T00:24:04.129Z,2.90
2022-11-25T00:26:35.310Z,2.90
2022-11-25T00:29:04.835Z,2.87
2022-11-25T00:31:34.476Z,2.98
2022-11-25T00:34:01.945Z,2.92
2022-11-25T00:36:32.154Z,2.95
2022-11-25T00:39:01.835Z,2.90
2022-11-25T00:41:48.040Z,3.01
2022-11-25T00:44:40.892Z,2.85
2022-11-25T00:47:18.961Z,2.77
2022-11-25T00:49:49.322Z,2.82
2022-11-25T00:52:21.848Z,2.77
2022-11-25T00:54:50.163Z,2.78
2022-11-25T00:57:24.620Z,2.78
2022-11-25T00:59:52.065Z,2.79
2022-11-25T01:02:19.859Z,2.81
2022-11-25T01:04:47.934Z,2.83
2022-11-25T01:07:16.546Z,2.86
2022-11-25T01:09:43.902Z,2.90
2022-11-25T01:12:11.229Z,2.85
2022-11-25T01:14:39.651Z,2.86
2022-11-25T01:17:07.030Z,2.81
2022-11-25T01:19:40.324Z,2.79
2022-11-25T01:22:08.787Z,2.80
2022-11-25T01:24:36.162Z,2.81
2022-11-25T01:27:03.372Z,2.80
2022-11-25T01:29:32.028Z,2.75
2022-11-25T01:31:59.359Z,2.74
2022-11-25T01:34:28.464Z,2.81
2022-11-25T01:36:55.369Z,2.80
2022-11-25T01:39:32.126Z,2.82
2022-11-25T01:42:02.628Z,2.87
2022-11-25T01:44:39.510Z,2.88
2022-11-25T01:47:18.964Z,2.93
2022-11-25T01:49:58.174Z,2.84
2022-11-25T01:52:30.124Z,2.76
2022-11-25T01:55:04.688Z,2.95
2022-11-25T01:57:44.289Z,3.06
2022-11-25T02:00:12.555Z,2.96
2022-11-25T02:02:40.199Z,3.15
2022-11-25T02:05:10.785Z,3.22
2022-11-25T02:07:42.787Z,3.12
2022-11-25T02:10:16.917Z,3.08
2022-11-25T02:12:46.118Z,3.30
2022-11-25T02:15:15.622Z,3.30
2022-11-25T02:17:57.415Z,3.36
2022-11-25T02:20:25.864Z,3.15
2022-11-25T02:23:12.696Z,3.15
2022-11-25T02:25:41.850Z,3.16
2022-11-25T02:28:13.783Z,3.23
2022-11-25T02:30:41.682Z,3.23
2022-11-25T02:33:08.781Z,3.23
2022-11-25T02:35:44.192Z,3.24
2022-11-25T02:38:13.876Z,3.30
2022-11-25T02:41:03.434Z,3.26
2022-11-25T02:43:31.019Z,3.25
2022-11-25T02:46:25.970Z,3.31
2022-11-25T02:49:12.222Z,3.29
2022-11-25T02:51:42.131Z,3.20
2022-11-25T02:54:09.721Z,3.27
2022-11-25T02:56:38.858Z,3.35
2022-11-25T02:59:06.852Z,3.64
2022-11-25T03:01:35.644Z,3.78
2022-11-25T03:04:02.929Z,3.45
2022-11-25T03:06:30.503Z,3.20
2022-11-25T03:08:58.293Z,3.08
2022-11-25T03:11:46.616Z,3.12
2022-11-25T03:14:15.222Z,3.30
2022-11-25T03:16:44.047Z,3.24
2022-11-25T03:19:11.561Z,3.33
2022-11-25T03:21:38.983Z,3.26
2022-11-25T03:24:06.973Z,3.24
2022-11-25T03:26:34.055Z,3.17
2022-11-25T03:29:02.530Z,3.18
2022-11-25T03:31:32.030Z,3.22
2022-11-25T03:33:59.301Z,3.34
2022-11-25T03:36:26.256Z,3.41
2022-11-25T03:38:53.210Z,3.41
2022-11-25T03:41:23.734Z,3.42
2022-11-25T03:43:58.433Z,3.46
2022-11-25T03:46:25.917Z,3.41
2022-11-25T03:48:54.317Z,3.45
2022-11-25T03:51:21.489Z,3.47
2022-11-25T03:53:48.664Z,3.47
2022-11-25T03:56:15.719Z,3.46
2022-11-25T03:58:43.176Z,3.50
2022-11-25T04:01:10.723Z,3.46
2022-11-25T04:03:37.965Z,3.50
2022-11-25T04:06:05.045Z,3.28
2022-11-25T04:08:32.503Z,3.51
2022-11-25T04:10:59.989Z,3.25
2022-11-25T04:13:30.709Z,3.17
2022-11-25T04:15:59.852Z,3.16
2022-11-25T04:18:30.180Z,3.01
2022-11-25T04:20:58.358Z,3.01
2022-11-25T04:23:26.348Z,3.02
2022-11-25T04:25:53.370Z,3.10
2022-11-25T04:28:20.757Z,3.12
2022-11-25T04:30:48.813Z,3.15
2022-11-25T04:33:17.242Z,3.02
2022-11-25T04:35:46.158Z,3.07
2022-11-25T04:38:16.211Z,3.16
2022-11-25T04:40:43.446Z,3.25
2022-11-25T04:43:12.764Z,3.22
2022-11-25T04:46:06.403Z,3.37
2022-11-25T04:48:27.586Z,3.35
2022-11-25T04:50:55.769Z,3.34
2022-11-25T04:53:23.071Z,3.48
2022-11-25T04:55:50.459Z,3.66
2022-11-25T04:58:39.904Z,3.80
2022-11-25T05:01:06.834Z,3.84
2022-11-25T05:03:34.309Z,3.85
2022-11-25T05:06:08.578Z,3.78
2022-11-25T05:08:36.742Z,3.68
2022-11-25T05:11:03.913Z,3.68
2022-11-25T05:13:31.400Z,3.56
2022-11-25T05:16:01.748Z,3.50
2022-11-25T05:18:30.826Z,3.46
2022-11-25T05:21:03.014Z,3.52
2022-11-25T05:23:30.660Z,3.54
2022-11-25T05:26:01.655Z,3.52
2022-11-25T05:28:31.027Z,3.49
2022-11-25T05:30:58.735Z,3.47
2022-11-25T05:33:25.805Z,3.48
2022-11-25T05:36:01.441Z,3.45
2022-11-25T05:38:28.719Z,3.45
2022-11-25T05:41:02.986Z,3.53
2022-11-25T05:43:36.169Z,3.67
2022-11-25T05:46:07.953Z,3.85
2022-11-25T05:48:36.249Z,3.92
2022-11-25T05:51:06.670Z,3.84
2022-11-25T05:53:35.107Z,3.88
2022-11-25T05:56:06.632Z,3.84
2022-11-25T05:58:39.941Z,3.83
2022-11-25T06:01:13.364Z,3.85
2022-11-25T06:03:40.734Z,3.91
2022-11-25T06:06:08.949Z,3.89
2022-11-25T06:08:37.934Z,3.74
2022-11-25T06:11:07.615Z,3.52
2022-11-25T06:13:35.235Z,3.82
2022-11-25T06:16:08.594Z,3.56
2022-11-25T06:18:37.940Z,3.45
2022-11-25T06:21:06.986Z,3.31
2022-11-25T06:23:35.075Z,3.37
2022-11-25T06:26:10.586Z,3.43
2022-11-25T06:28:46.587Z,3.79
2022-11-25T06:31:16.738Z,3.80
2022-11-25T06:33:47.904Z,3.59
2022-11-25T06:36:18.323Z,3.56
2022-11-25T06:38:51.513Z,3.49
2022-11-25T06:41:21.454Z,3.66
2022-11-25T06:43:48.895Z,3.83
2022-11-25T06:46:23.028Z,3.88
2022-11-25T06:48:52.324Z,3.81
2022-11-25T06:51:21.449Z,3.56
2022-11-25T06:53:48.998Z,3.69
2022-11-25T06:56:28.436Z,3.70
2022-11-25T06:58:56.378Z,3.51
2022-11-25T07:01:28.713Z,3.55
2022-11-25T07:04:00.330Z,3.59
2022-11-25T07:06:28.110Z,3.64
2022-11-25T07:08:56.026Z,3.64
2022-11-25T07:11:25.675Z,3.89
2022-11-25T07:13:55.305Z,4.17
2022-11-25T07:16:23.095Z,3.90
2022-11-25T07:19:05.204Z,3.84
2022-11-25T07:21:34.857Z,3.80
2022-11-25T07:24:04.032Z,3.95
2022-11-25T07:26:36.700Z,4.27
2022-11-25T07:29:23.454Z,4.02
2022-11-25T07:31:59.075Z,4.03
2022-11-25T07:34:26.139Z,4.06
2022-11-25T07:36:53.577Z,4.12
2022-11-25T07:39:23.532Z,4.36
2022-11-25T07:41:53.027Z,4.45
2022-11-25T07:44:21.834Z,4.45
2022-11-25T07:46:50.499Z,4.43
2022-11-25T07:49:21.353Z,4.44
2022-11-25T07:52:04.657Z,4.49
2022-11-25T07:54:33.491Z,4.56
2022-11-25T07:57:02.838Z,4.56
2022-11-25T07:59:30.338Z,4.60
2022-11-25T08:01:57.967Z,4.60
2022-11-25T08:04:25.262Z,4.34
2022-11-25T08:06:53.589Z,4.33
2022-11-25T08:09:24.105Z,4.38
2022-11-25T08:11:52.008Z,4.51
2022-11-25T08:14:21.021Z,4.49
2022-11-25T08:16:48.380Z,4.55
2022-11-25T08:19:23.131Z,4.64
2022-11-25T08:21:54.644Z,4.62
2022-11-25T08:24:21.795Z,4.77
2022-11-25T08:26:49.372Z,4.91
2022-11-25T08:29:18.680Z,4.89
2022-11-25T08:31:47.800Z,5.07
2022-11-25T08:34:23.757Z,5.11
2022-11-25T08:36:52.094Z,5.22
2022-11-25T08:39:55.924Z,5.36
2022-11-25T08:42:12.919Z,5.35
2022-11-25T08:44:40.852Z,5.31
2022-11-25T08:47:10.170Z,5.35
2022-11-25T08:49:41.772Z,5.26
2022-11-25T08:52:10.750Z,5.43
2022-11-25T08:54:38.111Z,5.62
2022-11-25T08:57:05.515Z,5.60
2022-11-25T08:59:35.549Z,5.60
2022-11-25T09:02:03.439Z,5.79
2022-11-25T09:04:32.140Z,5.73
2022-11-25T09:07:02.209Z,5.70
2022-11-25T09:09:29.254Z,5.74
2022-11-25T09:11:56.193Z,5.88
2022-11-25T09:14:23.735Z,5.90
2022-11-25T09:16:51.051Z,5.84
2022-11-25T09:19:18.041Z,5.96
2022-11-25T09:21:45.430Z,5.93
2022-11-25T09:24:14.531Z,6.06
2022-11-25T09:26:42.532Z,6.17
2022-11-25T09:29:12.461Z,6.12
2022-11-25T09:31:41.109Z,6.23
2022-11-25T09:34:10.132Z,6.23
2022-11-25T09:36:39.638Z,6.27
2022-11-25T09:39:08.925Z,6.38
2022-11-25T09:42:18.835Z,6.43
2022-11-25T09:45:36.986Z,6.68
2022-11-25T09:48:29.796Z,6.81
2022-11-25T09:51:21.812Z,7.00
2022-11-25T09:54:08.249Z,7.19
2022-11-25T09:56:38.202Z,7.14
2022-11-25T09:59:11.465Z,7.18
2022-11-25T10:02:03.081Z,6.89
2022-11-25T10:04:46.824Z,6.83
2022-11-25T10:07:35.054Z,6.91
2022-11-25T10:10:05.093Z,7.10
2022-11-25T10:12:45.125Z,7.10
2022-11-25T10:15:43.848Z,7.06
2022-11-25T10:18:53.411Z,7.07
2022-11-25T10:21:20.848Z,6.97
2022-11-25T10:23:48.314Z,7.12
2022-11-25T10:26:18.131Z,7.10
2022-11-25T10:28:57.193Z,7.40
2022-11-25T10:31:35.917Z,7.41
2022-11-25T10:34:24.695Z,7.40
2022-11-25T10:36:54.565Z,7.43
2022-11-25T10:39:27.299Z,7.48
2022-11-25T10:42:22.360Z,7.53
2022-11-25T10:44:50.267Z,7.82
2022-11-25T10:47:45.938Z,7.83
2022-11-25T10:50:48.694Z,7.85
2022-11-25T10:53:22.926Z,7.99
2022-11-25T10:56:04.000Z,8.22
2022-11-25T10:58:40.225Z,8.30
2022-11-25T11:01:23.170Z,8.56
2022-11-25T11:04:03.689Z,8.67
2022-11-25T11:06:39.693Z,8.81
2022-11-25T11:09:26.981Z,9.10
2022-11-25T11:11:53.903Z,10.73
2022-11-25T11:14:22.528Z,12.01
2022-11-25T11:16:55.746Z,12.44
2022-11-25T11:19:29.864Z,12.13
2022-11-25T11:22:25.560Z,11.36
2022-11-25T11:25:07.684Z,11.10
2022-11-25T11:27:38.240Z,10.64
2022-11-25T11:30:21.239Z,10.38
2022-11-25T11:33:37.422Z,10.14
2022-11-25T11:36:35.919Z,9.88
2022-11-25T11:39:39.623Z,9.85
2022-11-25T11:42:35.909Z,10.01
2022-11-25T11:45:23.866Z,10.17
2022-11-25T11:48:01.742Z,10.09
2022-11-25T11:50:46.566Z,9.99
2022-11-25T11:53:36.431Z,10.02
2022-11-25T11:56:35.338Z,10.15
2022-11-25T11:59:42.604Z,10.29
2022-11-25T12:02:29.956Z,10.27
2022-11-25T12:05:27.039Z,10.25
2022-11-25T12:08:13.005Z,10.18
2022-11-25T12:10:56.854Z,10.28
2022-11-25T12:13:48.409Z,10.38
2022-11-25T12:16:24.258Z,10.39
2022-11-25T12:19:02.857Z,10.14
2022-11-25T12:21:42.393Z,9.83
2022-11-25T12:24:36.554Z,9.71
2022-11-25T12:27:11.246Z,9.53
2022-11-25T12:30:04.374Z,9.56
2022-11-25T12:32:46.598Z,9.59
2022-11-25T12:35:39.512Z,9.50
2022-11-25T12:38:26.407Z,9.38
2022-11-25T12:41:05.905Z,9.21
2022-11-25T12:43:53.871Z,8.83
2022-11-25T12:46:39.268Z,8.77
2022-11-25T12:49:14.274Z,8.82
2022-11-25T12:52:00.963Z,8.67
2022-11-25T12:54:45.080Z,8.43
2022-11-25T12:57:49.686Z,8.39
2022-11-25T13:00:43.080Z,8.58
2022-11-25T13:03:37.014Z,8.51
2022-11-25T13:06:05.032Z,8.41
2022-11-25T13:08:50.798Z,8.28
2022-11-25T13:11:33.008Z,8.17
2022-11-25T13:14:01.390Z,8.11
2022-11-25T13:16:31.431Z,8.07
2022-11-25T13:18:59.204Z,8.08
2022-11-25T13:21:28.646Z,8.11
2022-11-25T13:23:58.965Z,8.12
2022-11-25T13:26:36.525Z,8.10
2022-11-25T13:29:26.960Z,8.17
2022-11-25T13:32:25.582Z,8.19
2022-11-25T13:35:27.005Z,8.20
2022-11-25T13:37:54.333Z,8.16
2022-11-25T13:40:29.687Z,8.16
2022-11-25T13:42:57.768Z,8.16
2022-11-25T13:45:43.861Z,8.20
2022-11-25T13:48:18.146Z,8.27
2022-11-25T13:51:12.747Z,8.25
2022-11-25T13:53:41.537Z,8.21
2022-11-25T13:56:25.601Z,8.16
2022-11-25T13:59:12.118Z,8.22
2022-11-25T14:01:52.076Z,8.19
2022-11-25T14:04:43.047Z,8.08
2022-11-25T14:07:49.437Z,7.96
2022-11-25T14:10:38.953Z,7.96
2022-11-25T14:13:15.004Z,7.93
2022-11-25T14:16:06.680Z,7.90
2022-11-25T14:19:21.771Z,7.93
2022-11-25T14:21:53.841Z,7.93
2022-11-25T14:24:48.268Z,7.85
2022-11-25T14:27:26.690Z,7.84
2022-11-25T14:30:00.999Z,7.91
2022-11-25T14:32:41.559Z,7.83
2022-11-25T14:35:16.994Z,7.76
2022-11-25T14:37:57.042Z,7.84
2022-11-25T14:40:31.915Z,7.81
2022-11-25T14:43:05.451Z,7.76
2022-11-25T14:45:35.715Z,7.69
2022-11-25T14:48:22.061Z,7.53
2022-11-25T14:51:20.035Z,7.70
2022-11-25T14:53:50.041Z,7.78
2022-11-25T14:56:31.441Z,7.68
2022-11-25T14:58:59.960Z,7.60
2022-11-25T15:01:33.744Z,7.55
2022-11-25T15:04:07.129Z,7.51
2022-11-25T15:06:40.499Z,7.37
2022-11-25T15:09:26.851Z,7.13
2022-11-25T15:12:07.843Z,7.37
2022-11-25T15:14:39.079Z,7.31
2022-11-25T15:17:21.631Z,7.15
2022-11-25T15:19:49.677Z,7.01
2022-11-25T15:22:23.582Z,7.08
2022-11-25T15:24:55.883Z,7.03
2022-11-25T15:27:28.082Z,6.94
2022-11-25T15:29:57.354Z,6.93
2022-11-25T15:32:34.162Z,6.97
2022-11-25T15:35:02.440Z,6.92
2022-11-25T15:37:29.682Z,6.97
2022-11-25T15:40:37.017Z,6.97
2022-11-25T15:43:27.566Z,7.02
2022-11-25T15:46:06.200Z,6.97
2022-11-25T15:48:41.351Z,6.92
2022-11-25T15:51:39.803Z,7.04
2022-11-25T15:54:13.509Z,7.20
2022-11-25T15:56:49.226Z,7.17
2022-11-25T15:59:50.790Z,6.96
2022-11-25T16:02:42.404Z,6.80
2022-11-25T16:05:24.930Z,6.60
2022-11-25T16:07:53.296Z,6.72
2022-11-25T16:10:25.356Z,6.86
2022-11-25T16:13:29.163Z,6.84
2022-11-25T16:16:12.258Z,6.71
2022-11-25T16:19:16.992Z,6.45
2022-11-25T16:21:59.126Z,6.46
2022-11-25T16:24:36.198Z,6.52
2022-11-25T16:27:07.120Z,6.51
2022-11-25T16:29:47.690Z,6.49
2022-11-25T16:32:20.714Z,6.42
2022-11-25T16:34:50.580Z,6.36
2022-11-25T16:37:17.849Z,6.16
2022-11-25T16:39:45.302Z,6.28
2022-11-25T16:42:20.124Z,6.26
2022-11-25T16:44:49.661Z,6.45
2022-11-25T16:47:19.528Z,6.67
2022-11-25T16:49:47.695Z,6.77
2022-11-25T16:52:15.626Z,6.52
2022-11-25T16:54:43.297Z,6.28
2022-11-25T16:57:20.489Z,6.24
2022-11-25T16:59:53.107Z,6.40
2022-11-25T17:02:23.581Z,6.40
2022-11-25T17:04:59.639Z,6.25
2022-11-25T17:07:33.940Z,6.16
2022-11-25T17:10:01.304Z,6.10
2022-11-25T17:12:32.722Z,5.82
2022-11-25T17:15:02.607Z,5.54
2022-11-25T17:17:40.056Z,5.54
2022-11-25T17:20:15.040Z,5.43
2022-11-25T17:22:42.500Z,5.45
2022-11-25T17:25:12.532Z,5.60
2022-11-25T17:27:40.463Z,5.53
2022-11-25T17:30:16.580Z,5.69
2022-11-25T17:32:43.604Z,5.80
2022-11-25T17:35:19.437Z,5.59
2022-11-25T17:37:47.442Z,5.63
2022-11-25T17:40:15.295Z,5.63
2022-11-25T17:42:50.757Z,5.48
2022-11-25T17:45:21.759Z,5.73
2022-11-25T17:47:49.290Z,5.74
2022-11-25T17:50:21.858Z,5.64
2022-11-25T17:52:55.380Z,5.76
2022-11-25T17:55:23.132Z,5.54
2022-11-25T17:57:57.151Z,5.63
2022-11-25T18:00:33.780Z,5.48
2022-11-25T18:03:02.345Z,5.58
2022-11-25T18:05:35.991Z,5.41
2022-11-25T18:08:04.726Z,5.37
2022-11-25T18:10:32.121Z,5.61
2022-11-25T18:13:00.621Z,5.65
2022-11-25T18:15:32.410Z,5.44
2022-11-25T18:18:03.661Z,5.68
2022-11-25T18:20:33.295Z,5.55
2022-11-25T18:23:01.787Z,5.48
2022-11-25T18:25:32.429Z,5.46
2022-11-25T18:28:01.094Z,5.49
2022-11-25T18:30:36.231Z,5.51
2022-11-25T18:33:09.787Z,5.39
2022-11-25T18:35:38.210Z,5.47
2022-11-25T18:38:06.988Z,5.36
2022-11-25T18:40:36.661Z,5.47
2022-11-25T18:43:05.300Z,5.40
2022-11-25T18:45:37.376Z,5.49
2022-11-25T18:48:21.277Z,5.58
2022-11-25T18:50:53.479Z,5.62
2022-11-25T18:53:21.373Z,5.61
2022-11-25T18:55:50.062Z,5.60
2022-11-25T18:58:24.443Z,5.71
2022-11-25T19:00:52.825Z,5.57
2022-11-25T19:03:27.174Z,5.52
2022-11-25T19:05:55.266Z,5.62
2022-11-25T19:08:22.866Z,5.62
2022-11-25T19:10:54.908Z,5.55
2022-11-25T19:13:32.437Z,5.55
2022-11-25T19:16:08.171Z,5.40
2022-11-25T19:18:37.068Z,5.49
2022-11-25T19:21:19.661Z,5.52
2022-11-25T19:23:48.091Z,5.38
2022-11-25T19:26:24.144Z,5.41
2022-11-25T19:29:06.161Z,5.15
2022-11-25T19:31:34.919Z,5.04
2022-11-25T19:34:20.578Z,5.20
2022-11-25T19:36:48.101Z,5.33
2022-11-25T19:39:19.080Z,5.23
2022-11-25T19:41:52.453Z,5.47
2022-11-25T19:44:20.761Z,5.66
2022-11-25T19:47:14.335Z,5.61
2022-11-25T19:49:38.036Z,5.63
2022-11-25T19:52:06.162Z,5.43
2022-11-25T19:54:33.873Z,5.23
2022-11-25T19:57:01.363Z,5.00
2022-11-25T19:59:28.414Z,4.80
2022-11-25T20:01:55.733Z,4.74
2022-11-25T20:04:24.329Z,4.63
2022-11-25T20:06:53.842Z,4.57
2022-11-25T20:09:21.148Z,4.52
2022-11-25T20:11:48.930Z,4.74
2022-11-25T20:14:18.781Z,4.56
2022-11-25T20:16:50.486Z,4.47
2022-11-25T20:19:19.450Z,4.53
2022-11-25T20:21:48.064Z,4.35
2022-11-25T20:24:21.861Z,4.35
2022-11-25T20:26:50.203Z,4.13
2022-11-25T20:29:23.605Z,4.01
2022-11-25T20:31:56.909Z,3.74
2022-11-25T20:34:25.080Z,3.50
2022-11-25T20:36:53.574Z,3.32
2022-11-25T20:39:21.557Z,3.07
2022-11-25T20:41:55.620Z,2.94
2022-11-25T20:44:23.651Z,3.05
2022-11-25T20:46:54.325Z,3.16
2022-11-25T20:49:29.964Z,3.17
2022-11-25T20:51:58.361Z,3.24
2022-11-25T20:54:25.944Z,3.19
2022-11-25T20:56:57.759Z,3.24
2022-11-25T20:59:29.209Z,3.39
2022-11-25T21:01:57.046Z,3.28
2022-11-25T21:04:24.761Z,2.91
2022-11-25T21:06:52.562Z,2.91
2022-11-25T21:09:23.758Z,2.88
2022-11-25T21:11:52.188Z,2.89
2022-11-25T21:14:20.827Z,2.85
2022-11-25T21:16:48.537Z,2.84
2022-11-25T21:19:21.910Z,2.79
2022-11-25T21:21:51.428Z,2.87
2022-11-25T21:24:21.907Z,2.71
2022-11-25T21:26:50.806Z,2.27
2022-11-25T21:29:18.788Z,2.05
2022-11-25T21:31:46.399Z,1.73
2022-11-25T21:34:14.906Z,1.77
2022-11-25T21:36:46.214Z,1.49
2022-11-25T21:39:33.600Z,1.64
2022-11-25T21:42:05.322Z,1.60
2022-11-25T21:44:39.916Z,1.50
2022-11-25T21:47:13.627Z,1.43
2022-11-25T21:49:41.101Z,1.40
2022-11-25T21:52:09.519Z,1.37
2022-11-25T21:54:37.044Z,1.66
2022-11-25T21:57:04.453Z,1.90
2022-11-25T21:59:32.287Z,1.99
2022-11-25T22:01:59.323Z,1.94
2022-11-25T22:04:26.786Z,1.89
2022-11-25T22:06:55.356Z,1.85
2022-11-25T22:09:24.894Z,1.70
2022-11-25T22:11:53.262Z,1.64
2022-11-25T22:14:37.243Z,1.59
2022-11-25T22:17:10.585Z,1.55
2022-11-25T22:19:37.583Z,1.49
2022-11-25T22:22:17.285Z,1.48
2022-11-25T22:24:46.043Z,1.46
2022-11-25T22:27:25.270Z,1.45
2022-11-25T22:29:53.375Z,1.46
2022-11-25T22:32:20.858Z,1.43
2022-11-25T22:34:47.902Z,1.37
2022-11-25T22:37:21.153Z,1.30
2022-11-25T22:39:48.667Z,1.32
2022-11-25T22:42:28.717Z,1.35
2022-11-25T22:44:59.144Z,1.30
2022-11-25T22:47:42.997Z,1.10
2022-11-25T22:50:22.102Z,1.07
2022-11-25T22:52:50.337Z,0.91
2022-11-25T22:55:23.712Z,0.83
2022-11-25T22:57:51.334Z,0.82
2022-11-25T23:00:31.124Z,0.68
2022-11-25T23:03:00.411Z,0.79
2022-11-25T23:05:33.401Z,0.69
2022-11-25T23:08:01.875Z,0.67
2022-11-25T23:10:31.620Z,0.76
2022-11-25T23:12:58.674Z,0.75
2022-11-25T23:15:26.264Z,0.81
2022-11-25T23:17:58.662Z,0.70
2022-11-25T23:20:38.239Z,0.59
2022-11-25T23:23:19.168Z,0.48
2022-11-25T23:25:47.055Z,0.44
2022-11-25T23:28:15.806Z,0.43
2022-11-25T23:30:58.118Z,0.46
2022-11-25T23:33:25.295Z,0.59
2022-11-25T23:35:52.378Z,0.69
2022-11-25T23:38:25.688Z,0.73
2022-11-25T23:40:58.984Z,0.55
2022-11-25T23:43:28.022Z,0.56
2022-11-25T23:45:56.778Z,0.54
2022-11-25T23:48:30.297Z,0.35
2022-11-25T23:50:59.484Z,0.10
2022-11-25T23:53:32.233Z,0.31
2022-11-25T23:56:00.024Z,0.45
2022-11-25T23:58:27.213Z,0.33
